createdAt,value
2018-08-11T00:05:33.064Z,83.10
2018-08-11T00:11:07.644Z,84.50
2018-08-11T06:53:07.995Z,84.50
2018-08-11T06:55:44.464Z,76.90
2018-08-11T06:58:23.848Z,73.90
2018-08-11T07:01:16.191Z,73.00
2018-08-11T07:04:04.444Z,71.20
2018-08-11T07:06:53.352Z,70.30
2018-08-11T07:09:36.280Z,71.70
2018-08-11T07:14:51.588Z,71.80
2018-08-11T07:17:35.186Z,68.10
2018-08-11T07:20:11.560Z,68.10
2018-08-11T11:07:01.073Z,59.70
2018-08-11T11:09:35.601Z,50.00
2018-08-11T11:12:11.664Z,51.00
2018-08-11T11:33:01.990Z,50.90
2018-08-11T11:48:35.940Z,50.00
2018-08-11T12:32:40.137Z,49.80
2018-08-11T12:35:16.195Z,48.30
2018-08-11T12:37:52.139Z,47.80
2018-08-11T12:48:23.048Z,48.20
2018-08-11T12:50:57.427Z,49.50
2018-08-11T12:58:41.275Z,48.80
2018-08-11T13:01:16.178Z,47.50
2018-08-11T13:03:50.546Z,48.10
2018-08-11T13:06:26.257Z,47.70
2018-08-11T13:42:45.249Z,47.10
2018-08-11T13:45:21.101Z,44.80
2018-08-11T13:47:57.460Z,44.70
2018-08-11T13:50:32.058Z,43.10
2018-08-11T13:58:15.067Z,43.10
2018-08-11T14:00:58.509Z,42.50
2018-08-11T14:03:32.949Z,42.00
2018-08-11T14:06:09.218Z,42.80
2018-08-11T14:08:48.144Z,42.90
2018-08-11T14:11:24.176Z,42.60
2018-08-11T14:13:59.908Z,41.80
2018-08-11T14:16:35.819Z,42.10
2018-08-11T14:19:10.310Z,41.30
2018-08-11T14:21:44.847Z,40.70
2018-08-11T14:24:19.263Z,39.80
2018-08-11T14:26:53.711Z,40.60
2018-08-11T14:29:30.228Z,40.70
2018-08-11T14:32:06.280Z,40.90
2018-08-11T14:34:42.650Z,40.60
2018-08-11T14:37:26.620Z,40.60
2018-08-11T14:40:01.444Z,39.90
2018-08-11T14:42:37.507Z,40.00
2018-08-11T14:45:13.251Z,40.50
2018-08-11T14:47:49.373Z,40.40
2018-08-11T14:50:23.814Z,41.00
2018-08-11T14:52:58.203Z,42.10
2018-08-11T14:55:32.562Z,41.30
2018-08-11T14:58:07.043Z,41.00
2018-08-11T15:00:51.237Z,41.60
2018-08-11T15:03:25.972Z,41.60
2018-08-11T15:06:02.064Z,41.20
2018-08-11T15:08:38.100Z,40.40
2018-08-11T15:11:14.151Z,40.70
2018-08-11T15:13:50.419Z,41.20
2018-08-11T15:16:26.353Z,41.20
2018-08-11T15:19:00.648Z,40.60
2018-08-11T15:21:35.388Z,41.30
2018-08-11T15:24:09.852Z,42.20
2018-08-11T15:26:45.688Z,43.10
2018-08-11T15:29:20.003Z,42.50
2018-08-11T15:31:56.099Z,41.50
2018-08-11T15:34:32.100Z,41.80
2018-08-11T15:37:06.556Z,41.90
2018-08-11T15:39:42.204Z,41.80
2018-08-11T15:42:17.889Z,42.80
2018-08-11T15:44:53.539Z,42.60
2018-08-11T15:47:37.654Z,42.50
2018-08-11T15:50:12.106Z,41.90
2018-08-11T15:52:46.478Z,41.80
2018-08-11T15:55:20.915Z,41.00
2018-08-11T15:57:55.299Z,41.80
2018-08-11T16:00:29.808Z,42.80
2018-08-11T16:03:05.063Z,43.20
2018-08-11T16:05:41.024Z,42.90
2018-08-11T16:08:17.016Z,43.00
2018-08-11T16:13:33.036Z,43.40
2018-08-11T16:16:09.091Z,43.00
2018-08-11T16:18:43.679Z,42.80
2018-08-11T16:21:18.184Z,42.50
2018-08-11T16:23:54.403Z,41.80
2018-08-11T16:26:28.743Z,42.40
2018-08-11T16:29:05.459Z,41.60
2018-08-11T16:34:22.885Z,42.60
2018-08-11T16:36:57.259Z,42.30
2018-08-11T16:39:33.232Z,42.50
2018-08-11T16:42:19.595Z,43.50
2018-08-11T16:44:55.175Z,43.60
2018-08-11T16:47:38.807Z,43.70
2018-08-11T16:50:13.187Z,43.20
2018-08-11T16:52:47.985Z,43.50
2018-08-11T16:55:22.435Z,43.30
2018-08-11T16:57:57.045Z,43.40
2018-08-11T17:00:31.383Z,43.50
2018-08-11T17:03:05.783Z,44.30
2018-08-11T17:05:42.057Z,44.40
2018-08-11T17:08:17.880Z,43.70
2018-08-11T17:11:01.528Z,42.90
2018-08-11T17:13:37.564Z,42.70
2018-08-11T17:16:13.660Z,42.90
2018-08-11T17:18:49.272Z,43.00
2018-08-11T17:21:25.540Z,43.50
2018-08-11T17:24:01.387Z,43.80
2018-08-11T17:26:37.114Z,44.10
2018-08-11T17:29:13.307Z,44.10
2018-08-11T17:31:47.655Z,43.90
2018-08-11T17:34:23.598Z,44.10
2018-08-11T17:36:57.908Z,43.40
2018-08-11T17:39:33.556Z,42.30
2018-08-11T17:42:21.493Z,42.70
2018-08-11T17:44:57.239Z,43.00
2018-08-11T17:47:47.737Z,42.80
2018-08-11T17:50:22.399Z,42.50
2018-08-11T17:52:56.979Z,42.80
2018-08-11T17:55:31.512Z,42.80
2018-08-11T17:58:05.955Z,43.10
2018-08-11T18:00:47.226Z,43.20
2018-08-11T18:03:22.057Z,43.10
2018-08-11T18:05:58.016Z,42.90
2018-08-11T18:08:33.608Z,43.50
2018-08-11T18:11:09.636Z,43.10
2018-08-11T18:13:45.445Z,43.00
2018-08-11T18:16:22.117Z,42.50
2018-08-11T18:18:58.052Z,42.60
2018-08-11T18:21:33.767Z,42.40
2018-08-11T18:24:10.223Z,42.70
2018-08-11T18:26:46.068Z,42.80
2018-08-11T18:29:20.552Z,42.30
2018-08-11T18:31:54.962Z,42.50
2018-08-11T18:34:41.646Z,42.70
2018-08-11T18:37:16.135Z,42.80
2018-08-11T18:39:52.034Z,42.70
2018-08-11T18:42:27.843Z,42.10
2018-08-11T18:45:03.511Z,42.20
2018-08-11T18:47:39.692Z,42.40
2018-08-11T18:50:14.933Z,42.50
2018-08-11T18:52:50.981Z,42.60
2018-08-11T18:55:25.572Z,42.30
2018-08-11T18:58:00.052Z,42.30
2018-08-11T19:00:35.620Z,42.60
2018-08-11T19:03:10.045Z,42.30
2018-08-11T19:05:45.731Z,42.70
2018-08-11T19:08:21.468Z,42.40
2018-08-11T19:11:04.286Z,42.10
2018-08-11T19:13:40.079Z,42.30
2018-08-11T19:16:16.180Z,42.70
2018-08-11T19:18:51.734Z,42.80
2018-08-11T19:21:29.602Z,43.50
2018-08-11T19:24:14.278Z,43.90
2018-08-11T19:26:50.208Z,43.80
2018-08-11T19:29:25.372Z,43.90
2018-08-11T19:31:59.725Z,44.20
2018-08-11T19:34:47.539Z,43.90
2018-08-11T19:40:09.804Z,43.80
2018-08-11T19:42:45.866Z,43.60
2018-08-11T19:45:21.605Z,43.70
2018-08-11T19:47:57.539Z,43.70
2018-08-11T19:50:33.232Z,43.60
2018-08-11T19:53:07.783Z,43.80
2018-08-11T19:55:42.631Z,43.70
2018-08-11T19:58:17.172Z,44.00
2018-08-11T20:00:53.911Z,44.30
2018-08-11T20:03:28.496Z,44.20
2018-08-11T20:06:05.446Z,44.20
2018-08-11T20:08:41.287Z,44.10
2018-08-11T20:11:17.347Z,44.00
2018-08-11T20:13:57.893Z,44.20
2018-08-11T20:16:37.097Z,44.50
2018-08-11T20:19:13.261Z,45.20
2018-08-11T20:21:54.223Z,45.20
2018-08-11T20:24:28.879Z,45.30
2018-08-11T20:27:03.548Z,45.40
2018-08-11T20:29:39.699Z,45.50
2018-08-11T20:32:17.511Z,45.70
2018-08-11T20:34:53.824Z,45.70
2018-08-11T20:37:34.142Z,45.90
2018-08-11T20:40:08.656Z,45.60
2018-08-11T20:42:44.655Z,45.60
2018-08-11T20:45:20.241Z,45.60
2018-08-11T20:47:56.385Z,46.00
2018-08-11T20:50:30.990Z,46.30
2018-08-11T20:53:05.535Z,46.30
2018-08-11T20:55:41.083Z,46.20
2018-08-11T20:58:15.681Z,46.30
2018-08-11T21:00:54.291Z,46.70
2018-08-11T21:03:28.625Z,47.20
2018-08-11T21:06:28.405Z,47.80
2018-08-11T21:09:07.140Z,48.30
2018-08-11T21:11:48.312Z,49.00
2018-08-11T21:14:22.780Z,49.80
2018-08-11T21:16:58.911Z,50.00
2018-08-11T21:19:34.853Z,50.60
2018-08-11T21:22:09.383Z,51.00
2018-08-11T21:24:43.817Z,51.20
2018-08-11T21:27:18.361Z,51.50
2018-08-11T21:29:52.640Z,51.70
2018-08-11T21:32:27.285Z,52.20
2018-08-11T21:35:03.755Z,52.50
2018-08-11T21:37:43.444Z,52.50
2018-08-11T21:40:17.911Z,52.70
2018-08-11T21:42:53.824Z,52.90
2018-08-11T21:45:29.803Z,53.10
2018-08-11T21:48:06.688Z,53.20
2018-08-11T21:50:42.339Z,53.30
2018-08-11T21:53:16.816Z,53.50
2018-08-11T21:55:51.556Z,53.80
2018-08-11T21:58:26.003Z,53.90
2018-08-11T22:01:11.478Z,54.10
2018-08-11T22:03:46.359Z,54.30
2018-08-11T22:06:22.166Z,54.70
2018-08-11T22:08:57.813Z,54.80
2018-08-11T22:11:33.461Z,55.80
2018-08-11T22:14:17.873Z,55.60
2018-08-11T22:16:53.845Z,55.90
2018-08-11T22:19:28.312Z,56.10
2018-08-11T22:22:02.816Z,56.10
2018-08-11T22:24:37.352Z,56.30
2018-08-11T22:27:11.723Z,56.50
2018-08-11T22:29:46.135Z,56.60
2018-08-11T22:32:20.719Z,56.70
2018-08-11T22:34:56.874Z,56.80
2018-08-11T22:37:43.706Z,56.80
2018-08-11T22:40:18.191Z,56.90
2018-08-11T22:42:53.990Z,57.10
2018-08-11T22:45:29.631Z,57.00
2018-08-11T22:48:06.188Z,57.00
2018-08-11T22:50:40.584Z,57.20
2018-08-11T22:53:15.556Z,56.90
2018-08-11T22:55:49.960Z,56.90
2018-08-11T22:58:24.392Z,56.70
2018-08-11T23:00:59.982Z,56.60
2018-08-11T23:03:34.567Z,56.60
2018-08-11T23:06:10.527Z,56.60
2018-08-11T23:08:46.415Z,56.60
2018-08-11T23:11:22.227Z,56.50
2018-08-11T23:13:57.987Z,56.70
2018-08-11T23:16:33.516Z,57.10
2018-08-11T23:19:08.261Z,57.50
2018-08-11T23:21:44.118Z,57.60
2018-08-11T23:24:18.631Z,57.50
2018-08-11T23:26:53.292Z,57.10
2018-08-11T23:29:27.692Z,57.60
2018-08-11T23:32:02.481Z,57.70
2018-08-11T23:34:38.509Z,57.90
2018-08-11T23:37:12.865Z,58.00
2018-08-11T23:39:49.576Z,58.10
2018-08-11T23:42:39.350Z,58.20
2018-08-11T23:45:16.261Z,58.30
2018-08-11T23:47:52.270Z,58.50
2018-08-11T23:50:26.804Z,59.10
2018-08-11T23:53:01.228Z,59.50
2018-08-11T23:55:35.783Z,59.50
2018-08-11T23:58:10.274Z,59.40
